Amberley Aerodrome, Australia
Current Conditions -  °F | °C
As of 11:00 AM on Sunday 26 Oct 2014 (Local Time) from YAMB Reporting Station
Clear Clear  
Wind Chill: 91°   Ceiling: Unl
Heat Index: 91°   Visibility: 6mi
Dew Point: 55°   Wind: 6mph
Humidity: 29%   Direction: 360°N
Pressure: 29.94"   Gusts: NA
Location:  27.63°S, 152.72°E
Report Text: YAMB 260100Z AUTO 36005KT 9999 // NCD 33/13 Q1014
Loading
Personal Weather Stations






























Interactive Weather Map
Tropical Storm Tracking
New forecast layout! Learn more

10-Day Weather Forecast

Advertisements
Track Severe Weather on mobile